sensor_id;sensor_type;location;lat;lon;timestamp;pressure;altitude;pressure_sealevel;temperature;humidity
20119;BME280;10220;42.716;23.306;2022-08-07T00:00:52;94991.34;;;24.56;100.00
20119;BME280;10220;42.716;23.306;2022-08-07T00:03:17;94987.72;;;25.06;99.80
20119;BME280;10220;42.716;23.306;2022-08-07T00:05:43;94968.69;;;25.04;98.41
20119;BME280;10220;42.716;23.306;2022-08-07T00:08:08;94962.47;;;25.08;97.58
20119;BME280;10220;42.716;23.306;2022-08-07T00:10:35;94967.31;;;25.06;99.41
20119;BME280;10220;42.716;23.306;2022-08-07T00:13:03;94960.81;;;24.85;100.00
20119;BME280;10220;42.716;23.306;2022-08-07T00:15:30;94980.09;;;24.01;100.00
20119;BME280;10220;42.716;23.306;2022-08-07T00:17:56;94988.72;;;23.93;100.00
20119;BME280;10220;42.716;23.306;2022-08-07T00:20:22;94966.34;;;24.17;100.00
20119;BME280;10220;42.716;23.306;2022-08-07T00:22:47;94984.25;;;24.38;100.00
20119;BME280;10220;42.716;23.306;2022-08-07T00:25:13;94973.75;;;24.74;100.00
20119;BME280;10220;42.716;23.306;2022-08-07T00:27:38;94992.63;;;24.99;99.57
20119;BME280;10220;42.716;23.306;2022-08-07T00:30:04;94990.94;;;24.76;100.00
20119;BME280;10220;42.716;23.306;2022-08-07T00:32:30;94991.06;;;24.71;99.39
20119;BME280;10220;42.716;23.306;2022-08-07T00:34:55;94982.31;;;24.84;96.11
20119;BME280;10220;42.716;23.306;2022-08-07T00:37:20;94996.03;;;24.59;97.36
20119;BME280;10220;42.716;23.306;2022-08-07T00:39:46;95002.06;;;24.78;99.46
20119;BME280;10220;42.716;23.306;2022-08-07T00:42:11;94958.34;;;24.76;97.40
20119;BME280;10220;42.716;23.306;2022-08-07T00:44:37;94949.81;;;24.79;96.79
20119;BME280;10220;42.716;23.306;2022-08-07T00:47:04;94983.50;;;24.78;100.00
20119;BME280;10220;42.716;23.306;2022-08-07T00:49:30;94975.81;;;24.63;100.00
20119;BME280;10220;42.716;23.306;2022-08-07T00:51:56;94991.25;;;24.75;98.63
20119;BME280;10220;42.716;23.306;2022-08-07T00:54:22;94974.38;;;24.57;99.32
20119;BME280;10220;42.716;23.306;2022-08-07T00:56:48;94992.09;;;24.43;100.00
20119;BME280;10220;42.716;23.306;2022-08-07T00:59:13;94955.91;;;24.07;100.00
20119;BME280;10220;42.716;23.306;2022-08-07T01:01:40;94998.13;;;24.17;100.00
20119;BME280;10220;42.716;23.306;2022-08-07T01:04:06;94992.94;;;23.94;100.00
20119;BME280;10220;42.716;23.306;2022-08-07T01:06:32;94986.41;;;24.05;100.00
20119;BME280;10220;42.716;23.306;2022-08-07T01:08:59;94995.06;;;24.42;100.00
20119;BME280;10220;42.716;23.306;2022-08-07T01:11:25;94993.72;;;24.71;100.00
20119;BME280;10220;42.716;23.306;2022-08-07T01:13:51;94953.25;;;24.39;100.00
20119;BME280;10220;42.716;23.306;2022-08-07T01:16:16;94965.34;;;24.13;100.00
20119;BME280;10220;42.716;23.306;2022-08-07T01:18:42;94992.91;;;24.25;100.00
20119;BME280;10220;42.716;23.306;2022-08-07T01:21:18;94991.13;;;24.08;100.00
20119;BME280;10220;42.716;23.306;2022-08-07T01:23:46;95020.75;;;24.10;100.00
20119;BME280;10220;42.716;23.306;2022-08-07T01:26:16;94988.91;;;23.83;100.00
20119;BME280;10220;42.716;23.306;2022-08-07T01:28:43;95013.31;;;24.12;100.00
20119;BME280;10220;42.716;23.306;2022-08-07T01:31:09;94997.31;;;23.85;100.00
20119;BME280;10220;42.716;23.306;2022-08-07T01:33:36;95005.38;;;23.02;100.00
20119;BME280;10220;42.716;23.306;2022-08-07T01:36:02;95014.66;;;22.94;100.00
20119;BME280;10220;42.716;23.306;2022-08-07T01:38:29;95004.84;;;22.76;100.00
20119;BME280;10220;42.716;23.306;2022-08-07T01:40:57;94998.88;;;23.12;100.00
20119;BME280;10220;42.716;23.306;2022-08-07T01:43:24;95007.91;;;23.30;100.00
20119;BME280;10220;42.716;23.306;2022-08-07T01:45:50;95016.75;;;22.97;100.00
20119;BME280;10220;42.716;23.306;2022-08-07T01:48:16;95042.31;;;23.06;100.00
20119;BME280;10220;42.716;23.306;2022-08-07T01:51:02;95033.66;;;23.43;100.00
20119;BME280;10220;42.716;23.306;2022-08-07T01:53:32;95048.47;;;23.62;100.00
20119;BME280;10220;42.716;23.306;2022-08-07T01:56:05;95082.69;;;23.77;100.00
20119;BME280;10220;42.716;23.306;2022-08-07T01:58:33;95090.00;;;23.62;100.00
20119;BME280;10220;42.716;23.306;2022-08-07T02:01:05;95095.88;;;23.59;100.00
20119;BME280;10220;42.716;23.306;2022-08-07T02:03:34;95102.88;;;23.68;100.00
20119;BME280;10220;42.716;23.306;2022-08-07T02:06:06;95097.16;;;23.61;100.00
20119;BME280;10220;42.716;23.306;2022-08-07T02:08:36;95096.00;;;23.67;100.00
20119;BME280;10220;42.716;23.306;2022-08-07T02:11:06;95081.81;;;23.40;100.00
20119;BME280;10220;42.716;23.306;2022-08-07T02:13:33;95092.28;;;23.50;100.00
20119;BME280;10220;42.716;23.306;2022-08-07T02:16:02;95096.28;;;23.47;100.00
20119;BME280;10220;42.716;23.306;2022-08-07T02:18:30;95095.03;;;23.40;100.00
20119;BME280;10220;42.716;23.306;2022-08-07T02:20:59;95098.56;;;23.35;100.00
20119;BME280;10220;42.716;23.306;2022-08-07T02:23:25;95084.94;;;23.23;100.00
20119;BME280;10220;42.716;23.306;2022-08-07T02:25:53;95065.91;;;23.21;100.00
20119;BME280;10220;42.716;23.306;2022-08-07T02:28:20;95042.66;;;23.00;100.00
20119;BME280;10220;42.716;23.306;2022-08-07T02:30:47;95030.44;;;22.81;100.00
20119;BME280;10220;42.716;23.306;2022-08-07T02:33:14;95020.41;;;22.54;100.00
20119;BME280;10220;42.716;23.306;2022-08-07T02:35:43;94981.66;;;21.88;100.00
20119;BME280;10220;42.716;23.306;2022-08-07T02:38:11;94992.41;;;21.64;100.00
20119;BME280;10220;42.716;23.306;2022-08-07T02:40:39;94991.69;;;21.53;100.00
20119;BME280;10220;42.716;23.306;2022-08-07T02:43:05;94997.81;;;21.44;100.00
20119;BME280;10220;42.716;23.306;2022-08-07T02:45:32;95014.84;;;21.61;100.00
20119;BME280;10220;42.716;23.306;2022-08-07T02:47:58;95003.53;;;21.61;100.00
20119;BME280;10220;42.716;23.306;2022-08-07T02:50:24;95007.31;;;21.83;100.00
20119;BME280;10220;42.716;23.306;2022-08-07T02:52:57;95037.66;;;22.14;100.00
20119;BME280;10220;42.716;23.306;2022-08-07T02:55:28;94997.59;;;22.07;100.00
20119;BME280;10220;42.716;23.306;2022-08-07T02:58:00;94983.56;;;21.83;100.00
20119;BME280;10220;42.716;23.306;2022-08-07T03:00:27;94980.72;;;21.75;100.00
20119;BME280;10220;42.716;23.306;2022-08-07T03:02:55;94955.00;;;21.57;100.00
20119;BME280;10220;42.716;23.306;2022-08-07T03:05:22;94999.25;;;21.98;100.00
20119;BME280;10220;42.716;23.306;2022-08-07T03:07:49;95004.50;;;22.36;100.00
20119;BME280;10220;42.716;23.306;2022-08-07T03:10:15;95022.78;;;22.56;100.00
20119;BME280;10220;42.716;23.306;2022-08-07T03:12:44;95023.16;;;22.68;100.00
20119;BME280;10220;42.716;23.306;2022-08-07T03:15:11;95015.13;;;22.78;100.00
20119;BME280;10220;42.716;23.306;2022-08-07T03:17:37;95001.78;;;22.88;100.00
20119;BME280;10220;42.716;23.306;2022-08-07T03:20:04;95014.00;;;23.07;100.00
20119;BME280;10220;42.716;23.306;2022-08-07T03:22:30;95014.19;;;23.15;100.00
20119;BME280;10220;42.716;23.306;2022-08-07T03:24:58;95004.00;;;23.04;100.00
20119;BME280;10220;42.716;23.306;2022-08-07T03:27:24;95013.78;;;22.80;100.00
20119;BME280;10220;42.716;23.306;2022-08-07T03:29:50;95019.19;;;22.70;100.00
20119;BME280;10220;42.716;23.306;2022-08-07T03:32:21;94970.59;;;22.15;100.00
20119;BME280;10220;42.716;23.306;2022-08-07T03:34:49;94995.66;;;22.17;100.00
20119;BME280;10220;42.716;23.306;2022-08-07T03:37:17;95015.31;;;22.35;100.00
20119;BME280;10220;42.716;23.306;2022-08-07T03:39:44;95015.25;;;22.68;100.00
20119;BME280;10220;42.716;23.306;2022-08-07T03:42:12;95001.34;;;22.81;100.00
20119;BME280;10220;42.716;23.306;2022-08-07T03:44:38;95001.44;;;22.99;100.00
20119;BME280;10220;42.716;23.306;2022-08-07T03:47:05;95000.31;;;23.05;100.00
20119;BME280;10220;42.716;23.306;2022-08-07T03:49:32;95018.94;;;23.13;100.00
20119;BME280;10220;42.716;23.306;2022-08-07T03:51:59;95033.19;;;23.17;100.00
20119;BME280;10220;42.716;23.306;2022-08-07T03:54:25;95019.75;;;23.14;100.00
20119;BME280;10220;42.716;23.306;2022-08-07T03:56:51;95029.63;;;23.27;100.00
20119;BME280;10220;42.716;23.306;2022-08-07T03:59:17;95023.66;;;23.16;100.00
20119;BME280;10220;42.716;23.306;2022-08-07T04:01:44;95023.69;;;22.70;100.00
20119;BME280;10220;42.716;23.306;2022-08-07T04:04:10;95033.50;;;22.64;100.00
20119;BME280;10220;42.716;23.306;2022-08-07T04:06:37;95004.16;;;22.43;100.00
20119;BME280;10220;42.716;23.306;2022-08-07T04:09:05;95017.94;;;22.86;100.00
20119;BME280;10220;42.716;23.306;2022-08-07T04:11:32;95022.94;;;23.11;100.00
20119;BME280;10220;42.716;23.306;2022-08-07T04:13:58;95021.59;;;23.13;100.00
20119;BME280;10220;42.716;23.306;2022-08-07T04:16:26;95042.81;;;23.08;100.00
20119;BME280;10220;42.716;23.306;2022-08-07T04:18:51;95029.97;;;22.74;100.00
20119;BME280;10220;42.716;23.306;2022-08-07T04:21:17;95034.38;;;23.06;100.00
20119;BME280;10220;42.716;23.306;2022-08-07T04:23:43;95035.50;;;23.61;100.00
20119;BME280;10220;42.716;23.306;2022-08-07T04:26:09;95030.78;;;23.58;100.00
20119;BME280;10220;42.716;23.306;2022-08-07T04:28:35;95010.25;;;23.50;100.00
20119;BME280;10220;42.716;23.306;2022-08-07T04:31:01;95045.94;;;23.34;100.00
20119;BME280;10220;42.716;23.306;2022-08-07T04:33:27;95050.72;;;23.32;100.00
20119;BME280;10220;42.716;23.306;2022-08-07T04:35:52;95063.31;;;23.40;100.00
20119;BME280;10220;42.716;23.306;2022-08-07T04:38:19;95037.13;;;23.20;100.00
20119;BME280;10220;42.716;23.306;2022-08-07T04:40:45;95025.09;;;23.09;100.00
20119;BME280;10220;42.716;23.306;2022-08-07T04:43:13;95075.06;;;23.52;100.00
20119;BME280;10220;42.716;23.306;2022-08-07T04:46:08;95066.19;;;23.43;100.00
20119;BME280;10220;42.716;23.306;2022-08-07T04:51:38;95061.78;;;23.94;100.00
20119;BME280;10220;42.716;23.306;2022-08-07T04:54:22;95058.00;;;24.00;100.00
20119;BME280;10220;42.716;23.306;2022-08-07T04:56:53;95086.34;;;24.49;100.00
20119;BME280;10220;42.716;23.306;2022-08-07T05:02:27;95015.53;;;25.08;100.00
20119;BME280;10220;42.716;23.306;2022-08-07T05:07:37;95076.44;;;25.27;100.00
20119;BME280;10220;42.716;23.306;2022-08-07T05:10:11;95076.06;;;25.20;100.00
20119;BME280;10220;42.716;23.306;2022-08-07T05:12:51;95093.66;;;24.84;100.00
20119;BME280;10220;42.716;23.306;2022-08-07T05:15:24;95085.03;;;25.86;100.00
20119;BME280;10220;42.716;23.306;2022-08-07T05:18:17;95082.63;;;26.33;100.00
20119;BME280;10220;42.716;23.306;2022-08-07T05:20:49;95100.63;;;27.48;100.00
20119;BME280;10220;42.716;23.306;2022-08-07T05:23:19;95101.50;;;27.27;100.00
20119;BME280;10220;42.716;23.306;2022-08-07T05:25:45;95104.53;;;28.06;100.00
20119;BME280;10220;42.716;23.306;2022-08-07T05:28:13;95069.41;;;28.38;95.73
20119;BME280;10220;42.716;23.306;2022-08-07T05:30:41;95079.56;;;27.86;100.00
20119;BME280;10220;42.716;23.306;2022-08-07T05:33:08;95068.63;;;28.21;96.07
20119;BME280;10220;42.716;23.306;2022-08-07T05:35:34;95080.19;;;29.21;92.69
20119;BME280;10220;42.716;23.306;2022-08-07T05:38:02;95107.09;;;30.11;84.01
20119;BME280;10220;42.716;23.306;2022-08-07T05:40:31;95116.31;;;30.42;81.67
20119;BME280;10220;42.716;23.306;2022-08-07T05:42:57;95096.38;;;30.72;79.27
20119;BME280;10220;42.716;23.306;2022-08-07T05:45:23;95113.38;;;29.57;87.31
20119;BME280;10220;42.716;23.306;2022-08-07T05:47:50;95093.06;;;28.65;94.28
20119;BME280;10220;42.716;23.306;2022-08-07T05:50:17;95116.94;;;28.45;99.14
20119;BME280;10220;42.716;23.306;2022-08-07T05:52:42;95134.47;;;27.48;100.00
20119;BME280;10220;42.716;23.306;2022-08-07T05:55:08;95114.53;;;26.55;100.00
20119;BME280;10220;42.716;23.306;2022-08-07T05:57:35;95134.31;;;28.00;100.00
20119;BME280;10220;42.716;23.306;2022-08-07T06:00:03;95133.53;;;28.67;100.00
20119;BME280;10220;42.716;23.306;2022-08-07T06:02:32;95132.66;;;27.65;100.00
20119;BME280;10220;42.716;23.306;2022-08-07T06:05:05;95138.75;;;28.30;100.00
20119;BME280;10220;42.716;23.306;2022-08-07T06:07:32;95145.34;;;28.66;100.00
20119;BME280;10220;42.716;23.306;2022-08-07T06:09:58;95151.56;;;28.11;100.00
20119;BME280;10220;42.716;23.306;2022-08-07T06:12:24;95144.25;;;28.25;100.00
20119;BME280;10220;42.716;23.306;2022-08-07T06:14:50;95157.44;;;28.47;96.98
20119;BME280;10220;42.716;23.306;2022-08-07T06:17:18;95146.81;;;27.99;98.62
20119;BME280;10220;42.716;23.306;2022-08-07T06:19:44;95135.00;;;27.58;100.00
20119;BME280;10220;42.716;23.306;2022-08-07T06:22:10;95152.84;;;27.58;100.00
20119;BME280;10220;42.716;23.306;2022-08-07T06:24:36;95137.97;;;27.26;100.00
20119;BME280;10220;42.716;23.306;2022-08-07T06:27:02;95146.25;;;27.17;100.00
20119;BME280;10220;42.716;23.306;2022-08-07T06:29:28;95164.13;;;27.25;100.00
20119;BME280;10220;42.716;23.306;2022-08-07T06:31:54;95115.69;;;26.62;100.00
20119;BME280;10220;42.716;23.306;2022-08-07T06:34:22;95150.78;;;26.94;100.00
20119;BME280;10220;42.716;23.306;2022-08-07T06:36:48;95132.66;;;26.96;100.00
20119;BME280;10220;42.716;23.306;2022-08-07T06:39:14;95154.53;;;26.71;100.00
20119;BME280;10220;42.716;23.306;2022-08-07T06:41:47;95140.53;;;27.01;100.00
20119;BME280;10220;42.716;23.306;2022-08-07T06:44:13;95128.94;;;27.06;100.00
20119;BME280;10220;42.716;23.306;2022-08-07T06:46:40;95145.63;;;27.28;100.00
20119;BME280;10220;42.716;23.306;2022-08-07T06:49:05;95166.41;;;27.48;100.00
20119;BME280;10220;42.716;23.306;2022-08-07T06:51:32;95153.78;;;27.23;100.00
20119;BME280;10220;42.716;23.306;2022-08-07T06:54:00;95129.44;;;26.86;100.00
20119;BME280;10220;42.716;23.306;2022-08-07T06:56:29;95126.66;;;27.13;100.00
20119;BME280;10220;42.716;23.306;2022-08-07T06:59:10;95160.97;;;27.23;100.00
20119;BME280;10220;42.716;23.306;2022-08-07T07:01:37;95159.03;;;27.75;100.00
20119;BME280;10220;42.716;23.306;2022-08-07T07:04:04;95148.00;;;28.41;93.41
20119;BME280;10220;42.716;23.306;2022-08-07T07:06:31;95135.28;;;28.88;88.22
20119;BME280;10220;42.716;23.306;2022-08-07T07:12:34;95140.63;;;28.80;89.19
20119;BME280;10220;42.716;23.306;2022-08-07T07:17:23;95145.13;;;29.05;87.33
20119;BME280;10220;42.716;23.306;2022-08-07T07:19:53;95129.78;;;28.51;90.50
20119;BME280;10220;42.716;23.306;2022-08-07T07:22:21;95137.56;;;29.15;85.15
20119;BME280;10220;42.716;23.306;2022-08-07T07:24:48;95149.53;;;29.55;75.10
20119;BME280;10220;42.716;23.306;2022-08-07T07:27:16;95114.38;;;29.44;71.89
20119;BME280;10220;42.716;23.306;2022-08-07T07:29:44;95141.09;;;29.44;75.35
20119;BME280;10220;42.716;23.306;2022-08-07T07:32:12;95155.72;;;29.47;78.24
20119;BME280;10220;42.716;23.306;2022-08-07T07:34:41;95145.28;;;29.00;79.85
20119;BME280;10220;42.716;23.306;2022-08-07T07:37:09;95150.91;;;29.61;75.29
20119;BME280;10220;42.716;23.306;2022-08-07T07:39:37;95145.38;;;29.66;75.84
20119;BME280;10220;42.716;23.306;2022-08-07T07:42:04;95157.06;;;30.19;73.06
20119;BME280;10220;42.716;23.306;2022-08-07T07:44:31;95142.91;;;30.18;69.23
20119;BME280;10220;42.716;23.306;2022-08-07T07:46:58;95128.22;;;30.04;66.26
20119;BME280;10220;42.716;23.306;2022-08-07T07:49:26;95124.19;;;30.18;68.14
20119;BME280;10220;42.716;23.306;2022-08-07T07:51:54;95139.63;;;29.92;66.92
20119;BME280;10220;42.716;23.306;2022-08-07T07:54:21;95149.50;;;30.21;67.22
20119;BME280;10220;42.716;23.306;2022-08-07T07:56:48;95143.88;;;29.93;68.20
20119;BME280;10220;42.716;23.306;2022-08-07T07:59:18;95134.06;;;29.68;71.49
20119;BME280;10220;42.716;23.306;2022-08-07T08:01:45;95147.13;;;30.48;66.08
20119;BME280;10220;42.716;23.306;2022-08-07T08:04:13;95133.75;;;30.19;63.73
20119;BME280;10220;42.716;23.306;2022-08-07T08:06:42;95155.25;;;30.11;67.67
20119;BME280;10220;42.716;23.306;2022-08-07T08:09:08;95144.06;;;30.09;69.73
20119;BME280;10220;42.716;23.306;2022-08-07T08:11:34;95163.97;;;30.48;64.55
20119;BME280;10220;42.716;23.306;2022-08-07T08:14:00;95158.81;;;30.15;66.82
20119;BME280;10220;42.716;23.306;2022-08-07T08:16:35;95144.72;;;29.85;65.81
20119;BME280;10220;42.716;23.306;2022-08-07T08:19:04;95128.84;;;29.72;66.38
20119;BME280;10220;42.716;23.306;2022-08-07T08:21:31;95162.59;;;30.14;67.39
20119;BME280;10220;42.716;23.306;2022-08-07T08:24:16;95164.03;;;30.11;64.07
20119;BME280;10220;42.716;23.306;2022-08-07T08:27:01;95174.84;;;30.23;63.52
20119;BME280;10220;42.716;23.306;2022-08-07T08:29:35;95161.81;;;30.62;64.24
20119;BME280;10220;42.716;23.306;2022-08-07T08:32:05;95159.69;;;30.27;62.00
20119;BME280;10220;42.716;23.306;2022-08-07T08:34:32;95179.06;;;29.95;65.28
20119;BME280;10220;42.716;23.306;2022-08-07T08:36:59;95173.13;;;29.90;66.65
20119;BME280;10220;42.716;23.306;2022-08-07T08:39:27;95161.91;;;30.25;63.28
20119;BME280;10220;42.716;23.306;2022-08-07T08:41:58;95167.09;;;30.01;65.62
20119;BME280;10220;42.716;23.306;2022-08-07T08:45:05;95164.00;;;30.20;66.26
20119;BME280;10220;42.716;23.306;2022-08-07T08:47:43;95194.19;;;30.20;66.92
20119;BME280;10220;42.716;23.306;2022-08-07T08:53:02;95162.72;;;29.60;68.50
20119;BME280;10220;42.716;23.306;2022-08-07T08:55:47;95163.47;;;29.68;68.25
20119;BME280;10220;42.716;23.306;2022-08-07T08:58:21;95169.53;;;29.77;66.95
20119;BME280;10220;42.716;23.306;2022-08-07T09:00:55;95157.31;;;29.76;68.06
20119;BME280;10220;42.716;23.306;2022-08-07T09:06:07;95152.81;;;29.97;65.06
20119;BME280;10220;42.716;23.306;2022-08-07T09:14:13;95161.81;;;30.62;63.03
20119;BME280;10220;42.716;23.306;2022-08-07T09:19:50;95128.53;;;30.84;58.26
20119;BME280;10220;42.716;23.306;2022-08-07T09:22:33;95144.50;;;30.60;60.26
20119;BME280;10220;42.716;23.306;2022-08-07T09:25:10;95150.53;;;30.28;59.10
20119;BME280;10220;42.716;23.306;2022-08-07T09:28:09;95149.66;;;30.65;59.50
20119;BME280;10220;42.716;23.306;2022-08-07T09:36:38;95112.06;;;31.73;56.48
20119;BME280;10220;42.716;23.306;2022-08-07T09:39:17;95128.63;;;31.87;56.42
20119;BME280;10220;42.716;23.306;2022-08-07T09:41:55;95122.00;;;32.20;53.67
20119;BME280;10220;42.716;23.306;2022-08-07T09:47:38;95111.66;;;31.71;54.71
20119;BME280;10220;42.716;23.306;2022-08-07T09:50:45;95121.91;;;31.93;53.59
20119;BME280;10220;42.716;23.306;2022-08-07T09:53:15;95115.16;;;32.23;52.92
20119;BME280;10220;42.716;23.306;2022-08-07T10:07:39;95096.63;;;31.35;52.35
20119;BME280;10220;42.716;23.306;2022-08-07T10:13:13;95105.88;;;31.13;52.97
20119;BME280;10220;42.716;23.306;2022-08-07T10:15:58;95074.72;;;30.65;53.56
20119;BME280;10220;42.716;23.306;2022-08-07T10:18:43;95099.81;;;31.04;53.61
20119;BME280;10220;42.716;23.306;2022-08-07T10:26:38;95093.41;;;31.89;50.77
20119;BME280;10220;42.716;23.306;2022-08-07T10:35:28;95102.59;;;31.76;53.71
20119;BME280;10220;42.716;23.306;2022-08-07T10:40:51;95104.22;;;31.45;55.36
20119;BME280;10220;42.716;23.306;2022-08-07T10:43:29;95097.59;;;31.51;54.46
20119;BME280;10220;42.716;23.306;2022-08-07T10:45:59;95092.88;;;31.83;53.46
20119;BME280;10220;42.716;23.306;2022-08-07T10:54:25;95085.59;;;31.84;53.74
20119;BME280;10220;42.716;23.306;2022-08-07T10:57:07;95107.47;;;31.98;52.31
20119;BME280;10220;42.716;23.306;2022-08-07T11:02:43;95105.44;;;30.79;55.02
20119;BME280;10220;42.716;23.306;2022-08-07T11:05:53;95100.34;;;30.66;57.02
20119;BME280;10220;42.716;23.306;2022-08-07T11:16:53;95085.47;;;31.45;55.27
20119;BME280;10220;42.716;23.306;2022-08-07T11:19:37;95084.03;;;31.95;54.46
20119;BME280;10220;42.716;23.306;2022-08-07T11:22:14;95075.00;;;31.63;54.42
20119;BME280;10220;42.716;23.306;2022-08-07T11:24:52;95082.75;;;32.16;50.87
20119;BME280;10220;42.716;23.306;2022-08-07T11:28:09;95089.59;;;32.13;52.56
20119;BME280;10220;42.716;23.306;2022-08-07T11:30:16;95073.22;;;31.55;52.98
20119;BME280;10220;42.716;23.306;2022-08-07T11:32:53;95106.84;;;31.53;54.83
20119;BME280;10220;42.716;23.306;2022-08-07T11:35:25;95094.81;;;30.83;61.45
20119;BME280;10220;42.716;23.306;2022-08-07T11:38:16;95095.38;;;30.76;62.94
20119;BME280;10220;42.716;23.306;2022-08-07T11:41:00;95106.78;;;30.85;63.28
20119;BME280;10220;42.716;23.306;2022-08-07T11:43:30;95110.94;;;30.22;66.96
20119;BME280;10220;42.716;23.306;2022-08-07T12:05:27;95098.56;;;30.17;71.67
20119;BME280;10220;42.716;23.306;2022-08-07T12:10:46;95090.13;;;29.86;72.92
20119;BME280;10220;42.716;23.306;2022-08-07T12:13:43;95100.59;;;29.25;79.93
20119;BME280;10220;42.716;23.306;2022-08-07T12:16:15;95103.56;;;28.70;81.07
20119;BME280;10220;42.716;23.306;2022-08-07T12:19:04;95102.31;;;28.67;81.44
20119;BME280;10220;42.716;23.306;2022-08-07T12:22:03;95102.78;;;28.86;79.63
20119;BME280;10220;42.716;23.306;2022-08-07T12:24:47;95105.47;;;28.52;80.47
20119;BME280;10220;42.716;23.306;2022-08-07T12:27:39;95072.38;;;28.37;80.84
20119;BME280;10220;42.716;23.306;2022-08-07T12:30:07;95097.66;;;28.39;82.78
20119;BME280;10220;42.716;23.306;2022-08-07T12:32:59;95102.19;;;28.47;84.78
20119;BME280;10220;42.716;23.306;2022-08-07T12:35:27;95067.63;;;28.59;83.19
20119;BME280;10220;42.716;23.306;2022-08-07T12:37:55;95100.44;;;28.68;83.82
20119;BME280;10220;42.716;23.306;2022-08-07T12:40:24;95102.31;;;28.59;87.08
20119;BME280;10220;42.716;23.306;2022-08-07T12:42:52;95098.72;;;28.63;81.13
20119;BME280;10220;42.716;23.306;2022-08-07T12:45:22;95068.72;;;28.75;76.58
20119;BME280;10220;42.716;23.306;2022-08-07T12:51:16;95104.13;;;29.01;69.68
20119;BME280;10220;42.716;23.306;2022-08-07T12:53:54;95087.97;;;29.06;74.24
20119;BME280;10220;42.716;23.306;2022-08-07T12:56:30;95083.88;;;29.08;74.85
20119;BME280;10220;42.716;23.306;2022-08-07T12:58:58;95086.78;;;28.61;77.34
20119;BME280;10220;42.716;23.306;2022-08-07T13:07:02;95076.44;;;28.76;72.61
20119;BME280;10220;42.716;23.306;2022-08-07T13:15:41;95066.75;;;28.47;71.62
20119;BME280;10220;42.716;23.306;2022-08-07T13:21:08;95070.03;;;29.06;72.73
20119;BME280;10220;42.716;23.306;2022-08-07T13:24:07;95063.16;;;29.42;68.91
20119;BME280;10220;42.716;23.306;2022-08-07T13:26:40;95070.56;;;29.37;63.50
20119;BME280;10220;42.716;23.306;2022-08-07T13:31:44;95066.69;;;29.17;62.09
20119;BME280;10220;42.716;23.306;2022-08-07T13:34:23;95046.00;;;29.14;66.50
20119;BME280;10220;42.716;23.306;2022-08-07T13:36:54;95060.00;;;29.11;68.75
20119;BME280;10220;42.716;23.306;2022-08-07T13:39:25;95052.75;;;29.12;70.99
20119;BME280;10220;42.716;23.306;2022-08-07T13:41:53;95053.56;;;29.04;68.38
20119;BME280;10220;42.716;23.306;2022-08-07T13:44:26;95051.44;;;29.26;67.07
20119;BME280;10220;42.716;23.306;2022-08-07T13:46:57;95042.75;;;29.38;66.18
20119;BME280;10220;42.716;23.306;2022-08-07T13:49:23;95041.06;;;29.62;64.87
20119;BME280;10220;42.716;23.306;2022-08-07T13:51:51;95063.03;;;29.67;64.21
20119;BME280;10220;42.716;23.306;2022-08-07T13:54:26;95061.63;;;29.90;62.06
20119;BME280;10220;42.716;23.306;2022-08-07T13:56:55;95061.19;;;29.80;63.38
20119;BME280;10220;42.716;23.306;2022-08-07T13:59:28;95046.31;;;29.70;62.14
20119;BME280;10220;42.716;23.306;2022-08-07T14:02:04;95030.13;;;29.18;65.09
20119;BME280;10220;42.716;23.306;2022-08-07T14:04:46;95058.38;;;29.56;65.70
20119;BME280;10220;42.716;23.306;2022-08-07T14:07:13;95050.81;;;29.87;65.29
20119;BME280;10220;42.716;23.306;2022-08-07T14:09:40;95059.09;;;29.65;66.62
20119;BME280;10220;42.716;23.306;2022-08-07T14:12:10;95039.28;;;29.66;63.87
20119;BME280;10220;42.716;23.306;2022-08-07T14:14:41;95042.47;;;29.80;63.54
20119;BME280;10220;42.716;23.306;2022-08-07T14:17:10;95053.56;;;29.70;65.14
20119;BME280;10220;42.716;23.306;2022-08-07T14:19:43;95014.03;;;29.35;66.78
20119;BME280;10220;42.716;23.306;2022-08-07T14:22:14;95075.66;;;29.59;68.03
20119;BME280;10220;42.716;23.306;2022-08-07T14:24:50;95061.72;;;29.45;68.96
20119;BME280;10220;42.716;23.306;2022-08-07T14:27:20;95072.69;;;29.14;72.90
20119;BME280;10220;42.716;23.306;2022-08-07T14:29:53;95060.44;;;28.76;76.35
20119;BME280;10220;42.716;23.306;2022-08-07T14:32:20;95074.38;;;28.82;77.01
20119;BME280;10220;42.716;23.306;2022-08-07T14:34:47;95057.28;;;28.74;78.10
20119;BME280;10220;42.716;23.306;2022-08-07T14:37:17;95077.97;;;28.86;78.29
20119;BME280;10220;42.716;23.306;2022-08-07T14:39:46;95077.03;;;28.82;78.81
20119;BME280;10220;42.716;23.306;2022-08-07T14:42:13;95053.81;;;28.82;78.46
20119;BME280;10220;42.716;23.306;2022-08-07T14:44:44;95065.19;;;29.00;78.64
20119;BME280;10220;42.716;23.306;2022-08-07T14:47:15;95039.59;;;28.53;81.42
20119;BME280;10220;42.716;23.306;2022-08-07T14:49:41;95060.66;;;28.92;77.51
20119;BME280;10220;42.716;23.306;2022-08-07T14:52:07;95063.28;;;28.54;79.91
20119;BME280;10220;42.716;23.306;2022-08-07T14:54:35;95053.47;;;28.84;80.10
20119;BME280;10220;42.716;23.306;2022-08-07T14:57:03;95031.22;;;28.71;76.48
20119;BME280;10220;42.716;23.306;2022-08-07T14:59:33;95038.00;;;28.52;76.19
20119;BME280;10220;42.716;23.306;2022-08-07T15:02:09;95055.44;;;28.49;80.02
20119;BME280;10220;42.716;23.306;2022-08-07T15:04:44;95060.22;;;28.81;75.93
20119;BME280;10220;42.716;23.306;2022-08-07T15:07:16;94977.19;;;28.03;78.05
20119;BME280;10220;42.716;23.306;2022-08-07T15:09:44;95056.78;;;28.81;75.83